Time;durP1;ratioP1;P1;durP2;ratioP2;P2;SDS_P1;SDS_P2;PMS_P1;PMS_P2;Temp;Humidity;BMP_temperature;BMP_pressure;BME280_temperature;BME280_humidity;BME280_pressure;Samples;Min_cycle;Max_cycle;Signal;HPM_P1;HPM_P2
2021/12/20 00:02:28;;;;;;;0.00;0.00;;;;;22.90;100204.00;;;;5087551;28;20044;-78
2021/12/20 00:04:57;;;;;;;0.00;0.00;;;;;22.90;100184.00;;;;5087125;28;20055;-77
2021/12/20 00:07:27;;;;;;;0.10;0.10;;;;;22.90;100195.00;;;;5086958;28;20453;-76
2021/12/20 00:09:56;;;;;;;0.00;0.00;;;;;22.90;100192.00;;;;5087296;28;20051;-77
2021/12/20 00:12:26;;;;;;;0.00;0.00;;;;;22.90;100194.00;;;;5097537;27;20050;-77
2021/12/20 00:14:57;;;;;;;0.00;0.00;;;;;22.90;100198.00;;;;5118020;27;20043;-76
2021/12/20 00:17:26;;;;;;;0.00;0.00;;;;;23.10;100204.00;;;;5116951;27;20504;-76
2021/12/20 00:19:56;;;;;;;0.00;0.00;;;;;22.90;100197.00;;;;5116943;27;20570;-75
2021/12/20 00:22:26;;;;;;;0.00;0.00;;;;;23.00;100223.00;;;;5117239;27;20063;-76
2021/12/20 00:24:55;;;;;;;0.00;0.00;;;;;22.90;100220.00;;;;5117763;27;20401;-74
2021/12/20 00:27:25;;;;;;;0.00;0.00;;;;;22.70;100213.00;;;;5117949;27;20396;-77
2021/12/20 00:29:54;;;;;;;0.00;0.00;;;;;22.70;100236.00;;;;5116234;27;20063;-77
2021/12/20 00:32:24;;;;;;;0.00;0.00;;;;;22.50;100233.00;;;;5117287;27;20054;-77
2021/12/20 00:34:53;;;;;;;0.00;0.00;;;;;22.50;100233.00;;;;5115551;27;20126;-75
2021/12/20 00:40:21;;;;;;;0.00;0.00;;;;;22.50;100229.00;;;;5107001;28;20040;-79
2021/12/20 00:42:53;;;;;;;0.00;0.00;;;;;22.50;100225.00;;;;5106152;28;20048;-74
2021/12/20 00:45:26;;;;;;;0.00;0.00;;;;;22.50;100239.00;;;;5107508;28;20477;-78
2021/12/20 00:47:55;;;;;;;0.00;0.00;;;;;22.50;100228.00;;;;5107998;28;20031;-77
2021/12/20 00:50:26;;;;;;;0.00;0.00;;;;;22.50;100249.00;;;;5106200;28;20409;-77
2021/12/20 00:52:56;;;;;;;0.00;0.00;;;;;22.80;100239.00;;;;5105782;28;20047;-76
2021/12/20 00:55:28;;;;;;;0.00;0.00;;;;;23.10;100244.00;;;;5106768;28;20043;-75
2021/12/20 00:57:59;;;;;;;0.00;0.00;;;;;23.10;100242.00;;;;5107438;28;20035;-75
2021/12/20 01:00:34;;;;;;;0.10;0.10;;;;;22.80;100223.00;;;;5107404;28;20047;-75
2021/12/20 01:03:06;;;;;;;0.00;0.00;;;;;22.80;100229.00;;;;5107454;28;20057;-76
2021/12/20 01:05:38;;;;;;;0.00;0.00;;;;;22.80;100220.00;;;;5113928;28;20047;-77
2021/12/20 01:08:09;;;;;;;1.75;1.65;;;;;22.60;100243.00;;;;5118126;28;20043;-75
2021/12/20 01:10:49;;;;;;;0.10;0.00;;;;;22.50;100240.00;;;;5111776;28;20533;-75
2021/12/20 01:13:23;;;;;;;0.00;0.00;;;;;22.70;100236.00;;;;5107553;28;20078;-75
2021/12/20 01:15:54;;;;;;;0.00;0.00;;;;;22.60;100237.00;;;;5107922;28;20043;-75
2021/12/20 01:18:24;;;;;;;;;;;;;22.40;100252.00;;;;5107421;28;20046;-75
2021/12/20 01:20:54;;;;;;;0.00;0.00;;;;;22.20;100251.00;;;;5107643;28;19919;-76
2021/12/20 01:23:23;;;;;;;0.10;0.10;;;;;22.30;100240.00;;;;5107988;28;21311;-76
2021/12/20 01:25:52;;;;;;;1.55;1.02;;;;;22.70;100248.00;;;;5106928;28;20047;-76
2021/12/20 01:28:22;;;;;;;0.00;0.00;;;;;22.70;100246.00;;;;5107830;28;20040;-76
2021/12/20 01:30:52;;;;;;;0.00;0.00;;;;;22.50;100253.00;;;;5107108;28;20569;-77
2021/12/20 01:33:21;;;;;;;0.00;0.00;;;;;22.30;100262.00;;;;5107996;28;20081;-77
2021/12/20 01:35:51;;;;;;;0.00;0.00;;;;;22.10;100258.00;;;;5107904;28;20044;-79
2021/12/20 01:38:20;;;;;;;0.00;0.00;;;;;22.00;100253.00;;;;5107600;28;20039;-78
2021/12/20 01:40:50;;;;;;;0.00;0.00;;;;;21.90;100259.00;;;;5107700;28;20063;-76
2021/12/20 01:43:19;;;;;;;0.03;0.00;;;;;22.10;100241.00;;;;5107141;28;20044;-76
2021/12/20 01:45:50;;;;;;;0.00;0.00;;;;;22.50;100252.00;;;;5106391;28;20494;-78
2021/12/20 01:48:21;;;;;;;0.00;0.00;;;;;22.60;100274.00;;;;5107037;28;20048;-78
2021/12/20 01:53:38;;;;;;;0.00;0.00;;;;;22.10;100268.00;;;;5107445;28;20031;-76
2021/12/20 01:56:10;;;;;;;0.20;0.20;;;;;22.30;100267.00;;;;5106979;28;20088;-76
2021/12/20 01:58:39;;;;;;;0.00;0.00;;;;;22.20;100246.00;;;;5106865;28;20050;-78
2021/12/20 02:03:41;;;;;;;0.00;0.00;;;;;22.10;100252.00;;;;5107731;28;20120;-77
2021/12/20 02:06:29;;;;;;;0.00;0.00;;;;;22.00;100249.00;;;;5107069;28;20047;-78
2021/12/20 02:09:01;;;;;;;0.00;0.00;;;;;22.00;100243.00;;;;5107883;28;20042;-76
2021/12/20 02:11:32;;;;;;;0.00;0.00;;;;;21.80;100268.00;;;;5107365;28;20511;-75
2021/12/20 02:14:02;;;;;;;0.00;0.00;;;;;21.70;100269.00;;;;5106731;28;20044;-77
2021/12/20 02:16:32;;;;;;;0.00;0.00;;;;;21.40;100260.00;;;;5107119;28;20092;-75
2021/12/20 02:19:07;;;;;;;0.10;0.10;;;;;21.20;100256.00;;;;5106883;28;20169;-77
2021/12/20 02:21:38;;;;;;;0.00;0.00;;;;;21.00;100257.00;;;;5110051;28;20047;-75
2021/12/20 02:24:07;;;;;;;0.00;0.00;;;;;20.80;100262.00;;;;5108701;28;20059;-75
2021/12/20 02:26:37;;;;;;;0.00;0.00;;;;;20.70;100256.00;;;;5110022;28;20050;-76
2021/12/20 02:29:08;;;;;;;0.10;0.08;;;;;20.60;100241.00;;;;5110564;28;20036;-75
2021/12/20 02:37:26;;;;;;;0.00;0.00;;;;;20.30;100262.00;;;;5109911;28;20047;-76
2021/12/20 02:39:56;;;;;;;0.35;0.35;;;;;20.10;100257.00;;;;5110195;28;20406;-77
2021/12/20 02:42:32;;;;;;;0.00;0.00;;;;;20.20;100267.00;;;;5109974;28;20100;-75
2021/12/20 02:45:11;;;;;;;0.00;0.00;;;;;20.20;100244.00;;;;5109433;28;20050;-77
2021/12/20 02:47:47;;;;;;;0.00;0.00;;;;;20.10;100252.00;;;;5109621;28;20063;-77
2021/12/20 02:50:17;;;;;;;0.00;0.00;;;;;19.90;100246.00;;;;5110073;27;20498;-75
2021/12/20 02:52:46;;;;;;;0.52;0.47;;;;;20.10;100260.00;;;;5109370;28;20116;-76
2021/12/20 02:55:17;;;;;;;0.00;0.00;;;;;20.10;100245.00;;;;5110433;28;20070;-74
2021/12/20 02:57:47;;;;;;;0.00;0.00;;;;;20.00;100260.00;;;;5110332;28;20130;-77
2021/12/20 03:00:17;;;;;;;0.13;0.13;;;;;20.00;100257.00;;;;5109818;28;20054;-76
2021/12/20 03:02:46;;;;;;;0.00;0.00;;;;;20.00;100232.00;;;;5109024;28;20051;-76
2021/12/20 03:05:16;;;;;;;0.00;0.00;;;;;20.00;100256.00;;;;5109010;28;20075;-76
2021/12/20 03:07:50;;;;;;;0.00;0.00;;;;;19.90;100227.00;;;;5109246;28;20493;-75
2021/12/20 03:10:23;;;;;;;0.00;0.00;;;;;19.80;100232.00;;;;5109329;28;20874;-77
2021/12/20 03:12:53;;;;;;;0.00;0.00;;;;;19.80;100249.00;;;;5109589;28;20423;-75
2021/12/20 03:15:25;;;;;;;0.00;0.00;;;;;19.80;100237.00;;;;5108791;28;20043;-77
2021/12/20 03:17:55;;;;;;;0.55;0.30;;;;;19.70;100236.00;;;;5109736;28;20112;-78
2021/12/20 03:20:24;;;;;;;0.00;0.00;;;;;19.60;100231.00;;;;5109272;28;20039;-76
2021/12/20 03:22:54;;;;;;;0.10;0.10;;;;;19.50;100211.00;;;;5109075;28;20570;-77
2021/12/20 03:25:23;;;;;;;0.00;0.00;;;;;19.50;100214.00;;;;5109186;28;20431;-75
2021/12/20 03:27:53;;;;;;;0.00;0.00;;;;;19.40;100205.00;;;;5109582;28;20054;-76
2021/12/20 03:30:26;;;;;;;0.00;0.00;;;;;19.40;100224.00;;;;5110748;28;20043;-76
2021/12/20 03:32:55;;;;;;;0.00;0.00;;;;;19.40;100211.00;;;;5109792;28;20051;-75
2021/12/20 03:35:25;;;;;;;0.00;0.00;;;;;19.40;100187.00;;;;5110774;28;20036;-75
2021/12/20 03:37:54;;;;;;;0.00;0.00;;;;;19.40;100220.00;;;;5111088;28;20046;-75
2021/12/20 03:40:24;;;;;;;0.10;0.10;;;;;19.40;100191.00;;;;5109346;28;20051;-79
2021/12/20 03:42:54;;;;;;;0.00;0.00;;;;;19.40;100190.00;;;;5111724;28;20051;-77
2021/12/20 03:45:23;;;;;;;0.00;0.00;;;;;19.40;100201.00;;;;5110546;28;20035;-77
2021/12/20 03:47:53;;;;;;;0.00;0.00;;;;;19.40;100203.00;;;;5110751;28;20043;-75
2021/12/20 03:50:24;;;;;;;0.00;0.00;;;;;19.40;100187.00;;;;5109959;28;20403;-76
2021/12/20 03:52:54;;;;;;;1.55;0.85;;;;;19.40;100185.00;;;;5109234;28;20410;-75
2021/12/20 03:55:23;;;;;;;0.00;0.00;;;;;19.30;100203.00;;;;5109680;28;20052;-75
2021/12/20 03:57:53;;;;;;;0.20;0.20;;;;;19.30;100208.00;;;;5110311;28;20498;-75
2021/12/20 04:00:22;;;;;;;0.10;0.10;;;;;19.30;100214.00;;;;5109294;28;20054;-75
2021/12/20 04:02:52;;;;;;;0.00;0.00;;;;;19.30;100205.00;;;;5109513;28;20108;-76
2021/12/20 04:05:22;;;;;;;0.00;0.00;;;;;19.30;100217.00;;;;5109444;28;20097;-77
2021/12/20 04:07:51;;;;;;;0.00;0.00;;;;;19.30;100201.00;;;;5109760;28;21468;-78
2021/12/20 04:10:20;;;;;;;0.00;0.00;;;;;19.20;100221.00;;;;5109284;28;20096;-76
2021/12/20 04:12:50;;;;;;;0.00;0.00;;;;;19.10;100204.00;;;;5110215;28;20043;-75
2021/12/20 04:15:20;;;;;;;0.00;0.00;;;;;19.10;100202.00;;;;5110300;28;20043;-78
2021/12/20 04:17:49;;;;;;;0.00;0.00;;;;;19.10;100212.00;;;;5109834;28;20040;-75
2021/12/20 04:20:19;;;;;;;0.10;0.10;;;;;19.10;100202.00;;;;5109884;28;20043;-75
2021/12/20 04:22:48;;;;;;;0.00;0.00;;;;;19.10;100221.00;;;;5109541;28;20051;-76
2021/12/20 04:25:17;;;;;;;0.17;0.17;;;;;19.10;100197.00;;;;5109077;28;20097;-76
2021/12/20 04:27:49;;;;;;;0.13;0.08;;;;;19.10;100205.00;;;;5109399;28;20047;-74
2021/12/20 04:30:19;;;;;;;0.00;0.00;;;;;19.10;100206.00;;;;5109197;28;20506;-75
2021/12/20 04:32:49;;;;;;;0.10;0.00;;;;;19.10;100214.00;;;;5109043;28;20042;-78
2021/12/20 04:35:18;;;;;;;0.35;0.35;;;;;19.10;100187.00;;;;5109078;28;20078;-75
2021/12/20 04:37:49;;;;;;;0.00;0.00;;;;;19.10;100187.00;;;;5108612;28;20547;-77
2021/12/20 04:40:21;;;;;;;;;;;;;19.00;100197.00;;;;5108108;28;20123;-77
2021/12/20 04:42:56;;;;;;;0.00;0.00;;;;;19.00;100183.00;;;;5106345;28;20314;-77
2021/12/20 04:45:27;;;;;;;0.20;0.13;;;;;18.90;100196.00;;;;5107261;28;20581;-75
2021/12/20 04:47:58;;;;;;;0.17;0.17;;;;;18.90;100177.00;;;;5107218;28;20119;-76
2021/12/20 04:50:28;;;;;;;0.00;0.00;;;;;18.90;100190.00;;;;5107371;28;20047;-76
2021/12/20 04:52:58;;;;;;;0.00;0.00;;;;;18.80;100168.00;;;;5114268;28;20044;-76
2021/12/20 04:55:29;;;;;;;0.00;0.00;;;;;18.80;100192.00;;;;5120830;28;20071;-75
2021/12/20 04:58:01;;;;;;;0.85;0.75;;;;;18.80;100173.00;;;;5114395;28;20446;-75
2021/12/20 05:00:33;;;;;;;0.20;0.20;;;;;18.80;100202.00;;;;5107200;28;20051;-77
2021/12/20 05:03:05;;;;;;;0.65;0.45;;;;;18.80;100169.00;;;;5107058;28;20052;-76
2021/12/20 05:05:35;;;;;;;0.00;0.00;;;;;18.80;100169.00;;;;5105828;28;20142;-75
2021/12/20 05:08:05;;;;;;;0.00;0.00;;;;;18.70;100158.00;;;;5106504;28;20046;-76
2021/12/20 05:10:38;;;;;;;0.00;0.00;;;;;18.70;100169.00;;;;5107615;28;20044;-75
2021/12/20 05:13:10;;;;;;;0.00;0.00;;;;;18.60;100171.00;;;;5106547;28;20039;-74
2021/12/20 05:15:45;;;;;;;0.00;0.00;;;;;18.60;100169.00;;;;5105846;28;20062;-76
2021/12/20 05:18:14;;;;;;;2.00;0.20;;;;;18.60;100171.00;;;;5106910;28;20040;-77
2021/12/20 05:20:44;;;;;;;0.10;0.10;;;;;18.70;100147.00;;;;5107781;28;20066;-77
2021/12/20 05:23:13;;;;;;;0.00;0.00;;;;;18.70;100143.00;;;;5106104;28;20081;-76
2021/12/20 05:25:42;;;;;;;0.00;0.00;;;;;18.70;100169.00;;;;5106848;28;20043;-76
2021/12/20 05:28:12;;;;;;;0.20;0.20;;;;;18.60;100173.00;;;;5107453;28;20112;-75
2021/12/20 05:30:45;;;;;;;0.00;0.00;;;;;18.60;100177.00;;;;5108006;28;20044;-75
2021/12/20 05:33:15;;;;;;;0.00;0.00;;;;;18.50;100178.00;;;;5108788;28;20058;-74
2021/12/20 05:35:45;;;;;;;0.00;0.00;;;;;18.50;100165.00;;;;5107882;28;20051;-75
2021/12/20 05:38:16;;;;;;;0.00;0.00;;;;;18.50;100153.00;;;;5106283;28;20503;-75
2021/12/20 05:40:45;;;;;;;0.00;0.00;;;;;18.40;100132.00;;;;5106966;28;20430;-75
2021/12/20 05:43:14;;;;;;;0.00;0.00;;;;;18.30;100162.00;;;;5106464;28;20084;-76
2021/12/20 05:45:44;;;;;;;0.00;0.00;;;;;18.20;100150.00;;;;5106290;28;20089;-76
2021/12/20 05:48:13;;;;;;;0.00;0.00;;;;;18.20;100145.00;;;;5106735;28;20039;-76
2021/12/20 05:50:43;;;;;;;0.00;0.00;;;;;18.10;100139.00;;;;5106184;28;20044;-75
2021/12/20 05:53:12;;;;;;;0.00;0.00;;;;;18.20;100156.00;;;;5105080;28;20043;-75
2021/12/20 05:55:41;;;;;;;0.00;0.00;;;;;18.20;100140.00;;;;5107970;28;20399;-76
2021/12/20 05:58:11;;;;;;;0.00;0.00;;;;;18.10;100146.00;;;;5110548;28;20047;-75
2021/12/20 06:00:40;;;;;;;0.00;0.00;;;;;18.20;100147.00;;;;5110064;28;20134;-75
2021/12/20 06:03:10;;;;;;;0.00;0.00;;;;;18.20;100138.00;;;;5110326;28;20051;-76
2021/12/20 06:05:42;;;;;;;0.00;0.00;;;;;18.10;100131.00;;;;5110150;28;20055;-75
2021/12/20 06:08:12;;;;;;;0.00;0.00;;;;;18.00;100149.00;;;;5109777;28;20126;-75
2021/12/20 06:10:41;;;;;;;0.00;0.00;;;;;18.10;100129.00;;;;5111135;28;20471;-76
2021/12/20 06:13:10;;;;;;;0.00;0.00;;;;;18.00;100142.00;;;;5109921;28;20093;-76
2021/12/20 06:15:39;;;;;;;0.00;0.00;;;;;18.00;100128.00;;;;5110353;28;20043;-76
2021/12/20 06:18:09;;;;;;;0.00;0.00;;;;;18.00;100126.00;;;;5110090;28;20099;-75
2021/12/20 06:20:42;;;;;;;0.00;0.00;;;;;18.00;100134.00;;;;5110665;28;20039;-75
2021/12/20 06:23:12;;;;;;;0.17;0.15;;;;;17.90;100125.00;;;;5110245;28;20044;-75
2021/12/20 06:25:42;;;;;;;0.00;0.00;;;;;18.00;100127.00;;;;5109981;28;20075;-75
2021/12/20 06:28:11;;;;;;;0.00;0.00;;;;;17.90;100144.00;;;;5109882;28;20082;-75
2021/12/20 06:30:41;;;;;;;0.00;0.00;;;;;17.80;100125.00;;;;5110063;28;20097;-75
2021/12/20 06:33:11;;;;;;;0.00;0.00;;;;;17.80;100146.00;;;;5109317;28;20074;-75
2021/12/20 06:35:40;;;;;;;0.00;0.00;;;;;17.80;100142.00;;;;5109393;28;20044;-75
2021/12/20 06:38:12;;;;;;;0.00;0.00;;;;;17.70;100142.00;;;;5109420;28;20112;-76
2021/12/20 06:40:42;;;;;;;0.00;0.00;;;;;17.80;100133.00;;;;5109860;28;20048;-75
2021/12/20 06:43:13;;;;;;;0.00;0.00;;;;;17.80;100128.00;;;;5109710;28;20084;-75
2021/12/20 06:45:44;;;;;;;0.00;0.00;;;;;17.80;100153.00;;;;5105602;28;20058;-75
2021/12/20 06:48:14;;;;;;;0.00;0.00;;;;;17.80;100134.00;;;;5105852;28;20108;-75
2021/12/20 06:50:44;;;;;;;0.00;0.00;;;;;17.70;100130.00;;;;5106916;28;20104;-76
2021/12/20 06:53:13;;;;;;;0.43;0.43;;;;;17.80;100152.00;;;;5108137;28;20139;-75
2021/12/20 06:55:43;;;;;;;0.00;0.00;;;;;17.80;100152.00;;;;5108839;28;20047;-75
2021/12/20 06:58:13;;;;;;;0.00;0.00;;;;;17.70;100151.00;;;;5109155;28;20039;-75
2021/12/20 07:00:42;;;;;;;0.00;0.00;;;;;17.80;100159.00;;;;5107825;28;20050;-75
2021/12/20 07:03:11;;;;;;;0.00;0.00;;;;;17.70;100153.00;;;;5108830;28;20065;-75
2021/12/20 07:05:41;;;;;;;0.00;0.00;;;;;17.70;100147.00;;;;5109037;28;20056;-75
2021/12/20 07:08:10;;;;;;;0.00;0.00;;;;;17.70;100162.00;;;;5107949;28;20522;-75
2021/12/20 07:10:40;;;;;;;1.35;0.30;;;;;17.80;100166.00;;;;5109321;28;20456;-75
2021/12/20 07:13:10;;;;;;;0.03;0.00;;;;;17.80;100174.00;;;;5108364;28;20051;-76
2021/12/20 07:15:39;;;;;;;0.00;0.00;;;;;17.80;100178.00;;;;5108832;28;20130;-75
2021/12/20 07:18:09;;;;;;;0.10;0.10;;;;;17.80;100178.00;;;;5108995;28;20105;-75
2021/12/20 07:20:38;;;;;;;0.00;0.00;;;;;17.80;100179.00;;;;5109250;28;20046;-76
2021/12/20 07:23:07;;;;;;;0.82;0.77;;;;;17.70;100192.00;;;;5107762;28;20036;-75
2021/12/20 07:25:37;;;;;;;0.10;0.00;;;;;17.80;100166.00;;;;5109057;28;20465;-75
2021/12/20 07:28:07;;;;;;;0.50;0.43;;;;;17.80;100155.00;;;;5109143;28;20051;-76
2021/12/20 07:30:37;;;;;;;0.40;0.40;;;;;17.90;100156.00;;;;5108369;28;20135;-75
2021/12/20 07:33:08;;;;;;;0.20;0.20;;;;;17.90;100160.00;;;;5108833;28;20035;-76
2021/12/20 07:35:38;;;;;;;0.00;0.00;;;;;17.80;100167.00;;;;5107918;28;20100;-75
2021/12/20 07:38:11;;;;;;;0.00;0.00;;;;;17.70;100167.00;;;;5109049;28;20031;-75
2021/12/20 07:40:46;;;;;;;0.00;0.00;;;;;17.70;100167.00;;;;5108054;28;20078;-75
2021/12/20 07:43:19;;;;;;;0.00;0.00;;;;;17.70;100172.00;;;;5108165;28;20465;-75
2021/12/20 07:45:49;;;;;;;0.00;0.00;;;;;17.70;100179.00;;;;5108570;28;20617;-75
2021/12/20 07:48:20;;;;;;;0.00;0.00;;;;;17.60;100193.00;;;;5108481;28;20518;-75
2021/12/20 07:50:51;;;;;;;2.78;1.17;;;;;17.60;100201.00;;;;5108090;28;20073;-75
2021/12/20 07:53:21;;;;;;;1.35;0.75;;;;;17.60;100182.00;;;;5107909;28;20506;-75
2021/12/20 07:55:50;;;;;;;0.00;0.00;;;;;17.70;100169.00;;;;5107522;28;20043;-76
2021/12/20 07:58:20;;;;;;;0.00;0.00;;;;;17.70;100187.00;;;;5106611;28;20472;-75
2021/12/20 08:00:50;;;;;;;0.00;0.00;;;;;17.70;100176.00;;;;5107355;28;20414;-75
2021/12/20 08:03:21;;;;;;;0.00;0.00;;;;;17.60;100199.00;;;;5108396;28;20553;-75
2021/12/20 08:05:51;;;;;;;0.00;0.00;;;;;17.50;100172.00;;;;5108401;28;20046;-75
2021/12/20 08:08:21;;;;;;;0.00;0.00;;;;;17.40;100172.00;;;;5107888;28;20046;-75
2021/12/20 08:10:51;;;;;;;0.00;0.00;;;;;17.50;100192.00;;;;5108009;28;20032;-75
2021/12/20 08:13:20;;;;;;;0.00;0.00;;;;;17.40;100172.00;;;;5107182;28;20043;-75
2021/12/20 08:15:54;;;;;;;1.55;1.45;;;;;17.40;100186.00;;;;5107637;28;20043;-76
2021/12/20 08:18:24;;;;;;;0.00;0.00;;;;;17.30;100191.00;;;;5107685;28;20092;-75
2021/12/20 08:20:54;;;;;;;0.00;0.00;;;;;17.30;100196.00;;;;5108143;28;20047;-75
2021/12/20 08:23:23;;;;;;;0.00;0.00;;;;;17.30;100200.00;;;;5106299;28;20048;-75
2021/12/20 08:25:52;;;;;;;0.00;0.00;;;;;17.30;100178.00;;;;5105900;28;20068;-75
2021/12/20 08:28:22;;;;;;;0.00;0.00;;;;;17.40;100195.00;;;;5107682;28;20047;-75
2021/12/20 08:30:51;;;;;;;0.00;0.00;;;;;17.50;100194.00;;;;5107455;28;20048;-76
2021/12/20 08:33:21;;;;;;;0.00;0.00;;;;;17.40;100187.00;;;;5107282;28;20537;-75
2021/12/20 08:35:51;;;;;;;0.00;0.00;;;;;17.50;100227.00;;;;5107638;27;20078;-75
2021/12/20 08:38:21;;;;;;;0.00;0.00;;;;;17.50;100217.00;;;;5106832;28;20525;-75
2021/12/20 08:40:50;;;;;;;0.00;0.00;;;;;17.60;100217.00;;;;5106320;28;20093;-75
2021/12/20 08:43:20;;;;;;;0.00;0.00;;;;;17.60;100231.00;;;;5107083;28;20044;-75
2021/12/20 08:45:50;;;;;;;0.00;0.00;;;;;17.70;100239.00;;;;5107432;28;20051;-75
2021/12/20 08:48:19;;;;;;;0.00;0.00;;;;;17.70;100245.00;;;;5107593;28;20533;-75
2021/12/20 08:50:49;;;;;;;0.38;0.38;;;;;17.80;100239.00;;;;5117455;28;20055;-75
2021/12/20 08:53:18;;;;;;;0.00;0.00;;;;;17.80;100228.00;;;;5117875;28;20055;-75
2021/12/20 08:55:47;;;;;;;0.00;0.00;;;;;17.80;100253.00;;;;5107767;28;20058;-75
2021/12/20 08:58:17;;;;;;;0.00;0.00;;;;;17.90;100229.00;;;;5107445;28;20043;-75
2021/12/20 09:00:47;;;;;;;0.03;0.03;;;;;18.00;100237.00;;;;5107647;28;20055;-75
2021/12/20 09:03:17;;;;;;;0.00;0.00;;;;;18.10;100253.00;;;;5107389;28;20122;-75
2021/12/20 09:05:47;;;;;;;0.00;0.00;;;;;18.20;100233.00;;;;5108269;28;20047;-75
2021/12/20 09:08:21;;;;;;;0.00;0.00;;;;;18.30;100250.00;;;;5106419;28;20051;-75
2021/12/20 09:10:51;;;;;;;2.05;0.80;;;;;18.40;100250.00;;;;5106930;28;20043;-75
2021/12/20 09:13:21;;;;;;;0.00;0.00;;;;;18.50;100223.00;;;;5106755;28;20051;-75
2021/12/20 09:15:51;;;;;;;0.00;0.00;;;;;18.60;100259.00;;;;5106242;28;20051;-75
2021/12/20 09:18:21;;;;;;;0.10;0.10;;;;;18.60;100252.00;;;;5106365;28;20054;-75
2021/12/20 09:20:52;;;;;;;0.00;0.00;;;;;18.70;100253.00;;;;5106514;28;20540;-75
2021/12/20 09:23:26;;;;;;;0.00;0.00;;;;;18.80;100235.00;;;;5107156;28;20134;-75
2021/12/20 09:25:55;;;;;;;0.00;0.00;;;;;18.90;100249.00;;;;5106971;28;20032;-75
2021/12/20 09:28:25;;;;;;;0.08;0.08;;;;;19.60;100180.00;;;;5106275;28;20051;-75
2021/12/20 09:30:55;;;;;;;0.00;0.00;;;;;20.30;100221.00;;;;5106495;28;20040;-75
2021/12/20 09:33:24;;;;;;;0.00;0.00;;;;;22.70;100055.00;;;;5106401;28;20044;-76
2021/12/20 09:35:54;;;;;;;0.00;0.00;;;;;22.90;100188.00;;;;5106261;28;20046;-75
2021/12/20 09:38:25;;;;;;;0.00;0.00;;;;;21.40;100235.00;;;;5105366;28;20047;-76
2021/12/20 09:43:43;;;;;;;0.15;0.15;;;;;21.60;100217.00;;;;5106513;28;20046;-75
2021/12/20 09:46:14;;;;;;;0.00;0.00;;;;;21.80;100201.00;;;;5105813;28;20040;-76
2021/12/20 09:48:46;;;;;;;13.80;1.07;;;;;21.10;100239.00;;;;5106650;28;20048;-76
2021/12/20 09:51:15;;;;;;;0.28;0.28;;;;;20.80;100234.00;;;;5105744;28;20048;-76
2021/12/20 09:53:45;;;;;;;0.00;0.00;;;;;20.70;100212.00;;;;5106469;28;20035;-76
2021/12/20 09:56:15;;;;;;;0.00;0.00;;;;;20.80;100238.00;;;;5106623;28;20433;-75
2021/12/20 09:58:47;;;;;;;0.00;0.00;;;;;20.90;100236.00;;;;5106189;28;20039;-75
2021/12/20 10:01:20;;;;;;;0.15;0.15;;;;;21.00;100247.00;;;;5106573;28;20040;-75
2021/12/20 10:03:52;;;;;;;0.00;0.00;;;;;21.10;100254.00;;;;5106339;28;20402;-75
2021/12/20 10:06:22;;;;;;;0.00;0.00;;;;;21.40;100257.00;;;;5106225;28;20115;-75
2021/12/20 10:08:55;;;;;;;0.95;0.90;;;;;21.70;100252.00;;;;5106434;28;20048;-76
2021/12/20 10:11:28;;;;;;;0.00;0.00;;;;;22.00;100260.00;;;;5106325;28;20444;-75
2021/12/20 10:14:03;;;;;;;0.00;0.00;;;;;22.20;100257.00;;;;5106217;28;20046;-75
2021/12/20 10:16:36;;;;;;;0.00;0.00;;;;;22.40;100265.00;;;;5105884;28;20119;-75
2021/12/20 10:19:30;;;;;;;0.10;0.10;;;;;23.60;100215.00;;;;5106545;28;20590;-75
2021/12/20 10:22:20;;;;;;;0.05;0.05;;;;;24.30;100236.00;;;;5100573;28;20059;-76
2021/12/20 10:24:51;;;;;;;0.00;0.00;;;;;24.00;100225.00;;;;5105770;28;20043;-76
2021/12/20 10:27:36;;;;;;;0.00;0.00;;;;;24.00;100248.00;;;;5105970;28;20085;-76
2021/12/20 10:30:28;;;;;;;0.10;0.10;;;;;27.40;100173.00;;;;5106109;28;20044;-75
2021/12/20 10:32:59;;;;;;;0.00;0.00;;;;;26.00;100231.00;;;;5105937;28;20425;-76
2021/12/20 10:35:39;;;;;;;0.20;0.20;;;;;25.20;100230.00;;;;5106113;28;20156;-76
2021/12/20 10:38:23;;;;;;;0.00;0.00;;;;;24.50;100266.00;;;;5104242;28;20123;-77
2021/12/20 10:41:11;;;;;;;0.10;0.10;;;;;24.10;100254.00;;;;5103108;28;20047;-76
2021/12/20 10:43:49;;;;;;;0.20;0.10;;;;;24.10;100264.00;;;;5107769;28;20090;-76
2021/12/20 10:46:22;;;;;;;0.00;0.00;;;;;24.20;100261.00;;;;5109426;28;20081;-76
2021/12/20 10:49:01;;;;;;;0.00;0.00;;;;;24.40;100264.00;;;;5110029;28;20046;-76
2021/12/20 10:51:34;;;;;;;0.00;0.00;;;;;24.50;100242.00;;;;5109937;28;20117;-76
2021/12/20 10:54:10;;;;;;;0.00;0.00;;;;;24.60;100256.00;;;;5109232;28;20043;-76
2021/12/20 10:57:05;;;;;;;0.00;0.00;;;;;24.60;100250.00;;;;5110238;28;20053;-76
2021/12/20 10:59:37;;;;;;;0.00;0.00;;;;;25.10;100255.00;;;;5109143;27;20499;-77
2021/12/20 11:05:02;;;;;;;0.00;0.00;;;;;32.30;100055.00;;;;5109561;28;20040;-77
2021/12/20 11:10:26;;;;;;;0.00;0.00;;;;;35.90;100056.00;;;;5109207;28;20055;-78
2021/12/20 11:12:56;;;;;;;0.00;0.00;;;;;36.40;100063.00;;;;5109447;28;20035;-77
2021/12/20 11:15:29;;;;;;;0.00;0.00;;;;;37.30;100079.00;;;;5109314;28;20049;-75
2021/12/20 11:18:14;;;;;;;0.85;0.85;;;;;37.70;100065.00;;;;5108186;28;20049;-74
2021/12/20 11:20:44;;;;;;;0.00;0.00;;;;;36.80;100053.00;;;;5108639;28;20134;-76
2021/12/20 11:23:26;;;;;;;0.00;0.00;;;;;37.10;100070.00;;;;5107905;28;20048;-76
2021/12/20 11:25:56;;;;;;;0.00;0.00;;;;;37.30;100050.00;;;;5108679;28;20088;-78
2021/12/20 11:28:25;;;;;;;0.85;0.85;;;;;36.80;100061.00;;;;5106710;28;20055;-76
2021/12/20 11:30:55;;;;;;;0.00;0.00;;;;;37.40;100090.00;;;;5108095;28;20051;-77
2021/12/20 11:33:24;;;;;;;0.00;0.00;;;;;37.20;100085.00;;;;5108755;28;20047;-76
2021/12/20 11:35:54;;;;;;;0.00;0.00;;;;;37.50;100114.00;;;;5108080;28;20036;-76
2021/12/20 11:38:23;;;;;;;0.00;0.00;;;;;36.90;100104.00;;;;5108877;28;20047;-77
2021/12/20 11:40:52;;;;;;;0.05;0.05;;;;;36.70;100103.00;;;;5108530;28;20047;-76
2021/12/20 11:43:22;;;;;;;0.10;0.10;;;;;36.30;100127.00;;;;5109115;28;20047;-77
2021/12/20 11:45:52;;;;;;;0.00;0.00;;;;;35.30;100116.00;;;;5107986;28;20093;-76
2021/12/20 11:48:24;;;;;;;0.00;0.00;;;;;35.10;100122.00;;;;5108764;27;20032;-77
2021/12/20 11:50:58;;;;;;;0.00;0.00;;;;;35.10;100111.00;;;;5107790;28;20065;-77
2021/12/20 11:53:40;;;;;;;0.08;0.00;;;;;34.50;100139.00;;;;5107547;28;20064;-77
2021/12/20 11:56:10;;;;;;;0.00;0.00;;;;;33.80;100152.00;;;;5106389;28;20035;-77
2021/12/20 11:58:46;;;;;;;0.10;0.10;;;;;33.20;100189.00;;;;5108484;28;20698;-77
2021/12/20 12:01:19;;;;;;;0.25;0.25;;;;;32.20;100231.00;;;;5108217;28;20075;-76
2021/12/20 12:03:57;;;;;;;0.40;0.40;;;;;32.20;100244.00;;;;5107924;28;20051;-76
2021/12/20 12:06:30;;;;;;;0.03;0.03;;;;;32.00;100244.00;;;;5108054;28;20040;-76
2021/12/20 12:09:02;;;;;;;0.10;0.10;;;;;31.90;100245.00;;;;5107884;28;20506;-76
2021/12/20 12:11:52;;;;;;;0.00;0.00;;;;;31.90;100229.00;;;;5108281;28;20043;-77
2021/12/20 12:14:32;;;;;;;0.00;0.00;;;;;31.80;100237.00;;;;5107724;28;20105;-76
2021/12/20 12:17:10;;;;;;;0.00;0.00;;;;;31.60;100228.00;;;;5107310;28;20039;-78
2021/12/20 12:19:50;;;;;;;0.30;0.30;;;;;31.10;100231.00;;;;5107616;28;20055;-76
2021/12/20 12:22:44;;;;;;;0.00;0.00;;;;;31.50;100215.00;;;;5106535;28;20056;-76
2021/12/20 12:25:35;;;;;;;0.00;0.00;;;;;32.10;100209.00;;;;5107143;28;20051;-76
2021/12/20 12:28:05;;;;;;;;;;;;;32.20;100214.00;;;;5107966;28;20044;-75
2021/12/20 12:30:35;;;;;;;0.90;0.10;;;;;32.10;100213.00;;;;5107644;28;19930;-76
2021/12/20 12:33:05;;;;;;;0.47;0.40;;;;;32.00;100221.00;;;;5107326;28;20039;-76
2021/12/20 12:35:42;;;;;;;0.00;0.00;;;;;32.00;100204.00;;;;5107856;28;20032;-77
2021/12/20 12:38:15;;;;;;;0.00;0.00;;;;;32.10;100181.00;;;;5106237;28;20491;-77
2021/12/20 12:40:51;;;;;;;0.00;0.00;;;;;32.10;100193.00;;;;5107267;28;20088;-77
2021/12/20 12:43:41;;;;;;;0.30;0.20;;;;;32.00;100188.00;;;;5107117;28;20075;-77
2021/12/20 12:46:11;;;;;;;0.95;0.22;;;;;31.80;100174.00;;;;5106962;28;20057;-76
2021/12/20 12:48:43;;;;;;;0.10;0.10;;;;;32.00;100172.00;;;;5107807;28;20513;-78
2021/12/20 12:51:19;;;;;;;0.00;0.00;;;;;32.50;100180.00;;;;5107441;28;20447;-77
2021/12/20 12:53:52;;;;;;;0.00;0.00;;;;;32.60;100166.00;;;;5106458;28;20044;-78